createdAt,value
2023-04-24T00:01:10.084Z,16.11
2023-04-24T00:03:38.254Z,16.11
2023-04-24T00:06:06.368Z,16.10
2023-04-24T00:08:33.469Z,16.11
2023-04-24T00:11:00.491Z,16.11
2023-04-24T00:13:29.300Z,16.08
2023-04-24T00:15:56.986Z,16.09
2023-04-24T00:18:23.612Z,16.09
2023-04-24T00:20:50.303Z,16.10
2023-04-24T00:23:17.076Z,16.06
2023-04-24T00:25:43.758Z,16.06
2023-04-24T00:28:10.551Z,16.07
2023-04-24T00:30:37.509Z,16.07
2023-04-24T00:33:04.322Z,16.04
2023-04-24T00:35:31.242Z,16.04
2023-04-24T00:37:57.936Z,16.00
2023-04-24T00:40:24.796Z,15.98
2023-04-24T00:42:51.591Z,15.98
2023-04-24T00:45:18.319Z,15.98
2023-04-24T00:47:46.422Z,15.96
2023-04-24T00:50:15.290Z,15.95
2023-04-24T00:52:42.135Z,15.96
2023-04-24T00:55:09.524Z,15.95
2023-04-24T00:57:36.636Z,15.91
2023-04-24T01:00:04.431Z,15.93
2023-04-24T01:02:31.442Z,15.94
2023-04-24T01:04:58.384Z,15.94
2023-04-24T01:07:28.606Z,15.93
2023-04-24T01:09:55.400Z,15.91
2023-04-24T01:12:22.255Z,15.91
2023-04-24T01:14:51.006Z,15.93
2023-04-24T01:17:17.992Z,15.91
2023-04-24T01:19:47.873Z,15.91
2023-04-24T01:22:15.374Z,15.89
2023-04-24T01:24:43.126Z,15.87
2023-04-24T01:27:12.985Z,15.88
2023-04-24T01:29:40.570Z,15.89
2023-04-24T01:32:08.353Z,15.86
2023-04-24T01:34:35.376Z,15.87
2023-04-24T01:37:02.237Z,15.85
2023-04-24T01:39:29.656Z,15.85
2023-04-24T01:41:57.205Z,15.86
2023-04-24T01:44:24.639Z,15.84
2023-04-24T01:46:51.631Z,15.83
2023-04-24T01:49:18.859Z,15.85
2023-04-24T01:51:46.169Z,15.84
2023-04-24T01:54:13.109Z,15.82
2023-04-24T01:56:43.843Z,15.82
2023-04-24T01:59:13.575Z,15.81
2023-04-24T02:01:40.715Z,15.81
2023-04-24T02:04:08.804Z,15.78
2023-04-24T02:06:36.328Z,15.81
2023-04-24T02:09:04.419Z,15.80
2023-04-24T02:11:31.580Z,15.79
2023-04-24T02:13:58.630Z,15.77
2023-04-24T02:16:25.912Z,15.77
2023-04-24T02:18:52.844Z,15.78
2023-04-24T02:21:19.562Z,15.76
2023-04-24T02:23:46.235Z,15.76
2023-04-24T02:26:13.921Z,15.76
2023-04-24T02:28:40.789Z,15.74
2023-04-24T02:31:07.890Z,15.75
2023-04-24T02:33:34.630Z,15.72
2023-04-24T02:36:01.381Z,15.74
2023-04-24T02:38:28.302Z,15.74
2023-04-24T02:40:55.208Z,15.73
2023-04-24T02:43:22.041Z,15.71
2023-04-24T02:45:48.760Z,15.68
2023-04-24T02:48:15.784Z,15.69
2023-04-24T02:50:42.450Z,15.69
2023-04-24T02:53:09.244Z,15.68
2023-04-24T02:55:36.675Z,15.66
2023-04-24T02:58:03.588Z,15.66
2023-04-24T03:00:30.989Z,15.63
2023-04-24T03:02:58.015Z,15.64
2023-04-24T03:05:24.947Z,15.65
2023-04-24T03:07:53.624Z,15.64
2023-04-24T03:10:23.723Z,15.65
2023-04-24T03:12:50.674Z,15.64
2023-04-24T03:15:18.852Z,15.62
2023-04-24T03:17:45.611Z,15.61
2023-04-24T03:20:12.697Z,15.61
2023-04-24T03:22:39.518Z,15.57
2023-04-24T03:25:10.336Z,15.60
2023-04-24T03:27:38.357Z,15.60
2023-04-24T03:30:16.624Z,15.59
2023-04-24T03:32:51.165Z,15.59
2023-04-24T03:35:23.552Z,15.59
2023-04-24T03:37:51.138Z,15.56
2023-04-24T03:40:37.995Z,15.56
2023-04-24T03:43:12.883Z,15.53
2023-04-24T03:45:39.684Z,15.55
2023-04-24T03:48:07.415Z,15.53
2023-04-24T03:50:34.725Z,15.52
2023-04-24T03:53:02.195Z,15.50
2023-04-24T03:55:36.226Z,15.51
2023-04-24T03:58:03.602Z,15.51
2023-04-24T04:00:34.342Z,15.50
2023-04-24T04:03:20.107Z,15.50
2023-04-24T04:05:47.294Z,15.46
2023-04-24T04:08:14.023Z,15.48
2023-04-24T04:10:40.838Z,15.48
2023-04-24T04:13:07.616Z,15.48
2023-04-24T04:15:35.744Z,15.47
2023-04-24T04:18:02.629Z,15.45
2023-04-24T04:20:29.995Z,15.45
2023-04-24T04:22:56.903Z,15.43
2023-04-24T04:25:35.340Z,15.40
2023-04-24T04:28:03.018Z,15.43
2023-04-24T04:30:33.186Z,15.41
2023-04-24T04:33:03.641Z,15.40
2023-04-24T04:35:31.956Z,15.39
2023-04-24T04:37:59.837Z,15.40
2023-04-24T04:40:27.379Z,15.36
2023-04-24T04:42:59.282Z,15.40
2023-04-24T04:45:29.512Z,15.38
2023-04-24T04:48:34.879Z,15.36
2023-04-24T04:51:03.377Z,15.35
2023-04-24T04:53:30.408Z,15.34
2023-04-24T04:55:57.445Z,15.32
2023-04-24T04:58:28.545Z,15.32
2023-04-24T05:00:58.619Z,15.32
2023-04-24T05:03:37.205Z,15.30
2023-04-24T05:06:08.087Z,15.32
2023-04-24T05:08:38.097Z,15.30
2023-04-24T05:11:08.026Z,15.31
2023-04-24T05:13:40.708Z,15.29
2023-04-24T05:16:22.784Z,15.38
2023-04-24T05:18:52.319Z,15.35
2023-04-24T05:21:23.610Z,15.31
2023-04-24T05:23:52.234Z,15.27
2023-04-24T05:26:31.132Z,15.27
2023-04-24T05:28:59.978Z,15.28
2023-04-24T05:31:26.864Z,15.26
2023-04-24T05:33:53.590Z,15.25
2023-04-24T05:36:20.612Z,15.23
2023-04-24T05:38:47.388Z,15.23
2023-04-24T05:41:14.860Z,15.22
2023-04-24T05:43:42.097Z,15.21
2023-04-24T05:46:08.708Z,15.21
2023-04-24T05:48:35.576Z,15.19
2023-04-24T05:51:04.353Z,15.17
2023-04-24T05:53:31.524Z,15.18
2023-04-24T05:55:58.484Z,15.16
2023-04-24T05:58:25.502Z,15.16
2023-04-24T06:00:52.389Z,15.14
2023-04-24T06:03:19.403Z,15.13
2023-04-24T06:05:48.272Z,15.13
2023-04-24T06:08:14.955Z,15.13
2023-04-24T06:10:43.947Z,15.12
2023-04-24T06:13:12.151Z,15.19
2023-04-24T06:15:43.375Z,15.43
2023-04-24T06:18:20.421Z,15.47
2023-04-24T06:20:48.774Z,15.53
2023-04-24T06:23:15.646Z,15.55
2023-04-24T06:25:42.558Z,15.59
2023-04-24T06:28:11.965Z,15.49
2023-04-24T06:30:38.636Z,15.41
2023-04-24T06:33:18.765Z,15.37
2023-04-24T06:35:46.658Z,15.37
2023-04-24T06:38:13.242Z,15.38
2023-04-24T06:40:40.263Z,15.38
2023-04-24T06:43:07.343Z,15.37
2023-04-24T06:45:34.238Z,15.40
2023-04-24T06:48:01.071Z,15.36
2023-04-24T06:50:27.862Z,15.43
2023-04-24T06:52:54.582Z,15.53
2023-04-24T06:55:21.533Z,15.64
2023-04-24T06:57:48.385Z,15.70
2023-04-24T07:00:15.494Z,16.00
2023-04-24T07:02:42.252Z,16.40
2023-04-24T07:05:09.457Z,16.49
2023-04-24T07:07:38.955Z,16.37
2023-04-24T07:10:06.708Z,16.33
2023-04-24T07:12:34.026Z,16.39
2023-04-24T07:15:01.605Z,16.36
2023-04-24T07:17:28.420Z,16.41
2023-04-24T07:19:55.147Z,16.42
2023-04-24T07:22:21.863Z,16.44
2023-04-24T07:24:48.644Z,16.48
2023-04-24T07:27:16.271Z,16.53
2023-04-24T07:29:43.925Z,16.61
2023-04-24T07:32:11.422Z,16.67
2023-04-24T07:34:38.328Z,16.68
2023-04-24T07:37:05.382Z,16.67
2023-04-24T07:39:32.670Z,16.71
2023-04-24T07:42:00.452Z,16.72
2023-04-24T07:44:27.362Z,16.72
2023-04-24T07:46:54.541Z,16.73
2023-04-24T07:49:21.160Z,16.74
2023-04-24T07:51:47.894Z,16.75
2023-04-24T07:54:14.710Z,16.81
2023-04-24T07:56:43.999Z,16.81
2023-04-24T07:59:11.393Z,16.80
2023-04-24T08:01:38.056Z,16.79
2023-04-24T08:04:04.887Z,16.81
2023-04-24T08:06:32.940Z,16.85
2023-04-24T08:09:00.763Z,16.83
2023-04-24T08:11:28.257Z,16.83
2023-04-24T08:13:55.978Z,16.88
2023-04-24T08:16:24.940Z,16.87
2023-04-24T08:18:52.214Z,16.90
2023-04-24T08:21:19.855Z,16.91
2023-04-24T08:23:47.171Z,16.86
2023-04-24T08:26:14.988Z,16.89
2023-04-24T08:28:41.653Z,16.90
2023-04-24T08:31:08.351Z,16.92
2023-04-24T08:33:37.844Z,16.95
2023-04-24T08:36:06.098Z,16.96
2023-04-24T08:38:33.083Z,16.95
2023-04-24T08:41:01.251Z,16.96
2023-04-24T08:43:29.220Z,16.95
2023-04-24T08:45:57.768Z,16.98
2023-04-24T08:48:30.870Z,16.98
2023-04-24T08:51:00.123Z,17.02
2023-04-24T08:53:28.097Z,17.00
2023-04-24T08:55:57.743Z,17.04
2023-04-24T08:58:27.539Z,17.05
2023-04-24T09:00:56.982Z,17.04
2023-04-24T09:03:24.305Z,17.05
2023-04-24T09:05:51.667Z,17.09
2023-04-24T09:08:20.022Z,17.07
2023-04-24T09:10:49.076Z,17.09
2023-04-24T09:13:17.824Z,17.10
2023-04-24T09:15:44.664Z,17.14
2023-04-24T09:18:11.461Z,17.14
2023-04-24T09:21:00.212Z,17.14
2023-04-24T09:23:30.508Z,17.14
2023-04-24T09:25:58.349Z,17.21
2023-04-24T09:28:31.463Z,17.19
2023-04-24T09:31:05.502Z,17.17
2023-04-24T09:33:32.393Z,17.18
2023-04-24T09:36:00.204Z,17.18
2023-04-24T09:38:37.770Z,17.21
2023-04-24T09:41:07.007Z,17.21
2023-04-24T09:43:35.302Z,17.20
2023-04-24T09:46:07.570Z,17.20
2023-04-24T09:48:36.436Z,17.22
2023-04-24T09:51:05.179Z,17.21
2023-04-24T09:53:32.231Z,17.21
2023-04-24T09:56:09.310Z,17.20
2023-04-24T09:58:37.512Z,17.22
2023-04-24T10:01:04.740Z,17.21
2023-04-24T10:03:33.549Z,17.23
2023-04-24T10:06:01.978Z,17.24
2023-04-24T10:08:35.561Z,17.25
2023-04-24T10:11:03.059Z,17.27
2023-04-24T10:13:29.969Z,17.24
2023-04-24T10:15:57.447Z,17.39
2023-04-24T10:18:26.212Z,17.52
2023-04-24T10:20:55.877Z,17.58
2023-04-24T10:23:24.213Z,17.65
2023-04-24T10:25:52.237Z,17.71
2023-04-24T10:28:20.306Z,17.74
2023-04-24T10:30:47.520Z,17.81
2023-04-24T10:33:15.223Z,17.84
2023-04-24T10:35:46.857Z,17.85
2023-04-24T10:38:16.766Z,17.86
2023-04-24T10:40:45.110Z,17.76
2023-04-24T10:43:17.100Z,17.71
2023-04-24T10:46:02.325Z,17.67
2023-04-24T10:48:29.042Z,17.65
2023-04-24T10:50:55.894Z,17.66
2023-04-24T10:53:24.582Z,17.63
2023-04-24T10:56:14.481Z,17.61
2023-04-24T10:58:49.144Z,17.59
2023-04-24T11:01:36.079Z,17.60
2023-04-24T11:04:04.709Z,17.57
2023-04-24T11:06:34.132Z,17.60
2023-04-24T11:09:06.395Z,17.53
2023-04-24T11:11:34.077Z,17.50
2023-04-24T11:14:01.077Z,17.48
2023-04-24T11:16:36.319Z,17.52
2023-04-24T11:19:16.313Z,17.50
2023-04-24T11:21:43.306Z,17.54
2023-04-24T11:24:30.164Z,17.51
2023-04-24T11:27:03.426Z,17.49
2023-04-24T11:29:54.315Z,17.53
2023-04-24T11:32:37.448Z,17.49
2023-04-24T11:35:22.073Z,17.46
2023-04-24T11:38:18.842Z,17.43
2023-04-24T11:40:41.229Z,17.50
2023-04-24T11:43:09.759Z,17.45
2023-04-24T11:45:36.676Z,17.45
2023-04-24T11:48:04.617Z,17.43
2023-04-24T11:50:31.722Z,17.46
2023-04-24T11:52:58.685Z,17.46
2023-04-24T11:55:28.328Z,17.41
2023-04-24T11:58:00.533Z,17.44
2023-04-24T12:00:29.062Z,17.44
2023-04-24T12:03:10.334Z,17.43
2023-04-24T12:05:37.925Z,17.45
2023-04-24T12:08:04.983Z,17.43
2023-04-24T12:10:33.585Z,17.44
2023-04-24T12:13:01.404Z,17.44
2023-04-24T12:15:28.928Z,17.50
2023-04-24T12:17:56.751Z,17.49
2023-04-24T12:20:29.979Z,17.45
2023-04-24T12:22:58.158Z,17.48
2023-04-24T12:25:27.640Z,17.51
2023-04-24T12:28:13.672Z,17.43
2023-04-24T12:30:50.126Z,17.45
2023-04-24T12:33:21.001Z,17.45
2023-04-24T12:35:49.772Z,17.47
2023-04-24T12:38:17.203Z,17.60
2023-04-24T12:40:44.728Z,17.72
2023-04-24T12:43:15.974Z,17.69
2023-04-24T12:45:42.719Z,17.63
2023-04-24T12:48:09.371Z,17.68
2023-04-24T12:50:36.134Z,17.60
2023-04-24T12:53:02.869Z,17.63
2023-04-24T12:55:29.599Z,17.59
2023-04-24T12:57:57.085Z,17.57
2023-04-24T13:00:23.951Z,17.56
2023-04-24T13:02:50.827Z,17.52
2023-04-24T13:05:18.092Z,17.68
2023-04-24T13:07:44.838Z,17.85
2023-04-24T13:10:11.800Z,17.97
2023-04-24T13:12:39.749Z,17.76
2023-04-24T13:15:07.320Z,17.70
2023-04-24T13:17:34.321Z,17.67
2023-04-24T13:20:01.008Z,17.64
2023-04-24T13:22:28.318Z,17.56
2023-04-24T13:24:55.580Z,17.48
2023-04-24T13:27:22.303Z,17.46
2023-04-24T13:29:48.950Z,17.42
2023-04-24T13:32:16.083Z,17.39
2023-04-24T13:34:42.861Z,17.34
2023-04-24T13:37:09.603Z,17.32
2023-04-24T13:39:36.410Z,17.26
2023-04-24T13:42:04.882Z,17.27
2023-04-24T13:44:32.612Z,17.26
2023-04-24T13:46:59.668Z,17.20
2023-04-24T13:49:27.604Z,17.16
2023-04-24T13:51:56.115Z,17.13
2023-04-24T13:54:24.479Z,17.10
2023-04-24T13:56:52.827Z,17.11
2023-04-24T13:59:20.933Z,17.10
2023-04-24T14:01:48.722Z,17.11
2023-04-24T14:04:15.829Z,17.09
2023-04-24T14:06:42.680Z,17.06
2023-04-24T14:09:09.491Z,17.03
2023-04-24T14:11:36.468Z,17.01
2023-04-24T14:14:03.912Z,17.00
2023-04-24T14:16:31.842Z,16.97
2023-04-24T14:18:59.001Z,16.95
2023-04-24T14:21:25.705Z,16.95
2023-04-24T14:23:52.322Z,16.94
2023-04-24T14:26:19.001Z,16.93
2023-04-24T14:28:45.641Z,16.93
2023-04-24T14:31:12.439Z,16.89
2023-04-24T14:33:39.114Z,16.96
2023-04-24T14:36:06.736Z,17.11
2023-04-24T14:38:33.905Z,17.22
2023-04-24T14:43:31.142Z,17.37
2023-04-24T14:45:57.836Z,17.37
2023-04-24T14:48:24.518Z,17.37
2023-04-24T14:50:51.464Z,17.33
2023-04-24T14:53:18.471Z,17.33
2023-04-24T14:55:45.553Z,17.31
2023-04-24T14:58:12.290Z,17.30
2023-04-24T15:00:39.231Z,17.34
2023-04-24T15:03:06.082Z,17.36
2023-04-24T15:05:33.486Z,17.31
2023-04-24T15:08:00.573Z,17.29
2023-04-24T15:10:27.344Z,17.34
2023-04-24T15:12:54.084Z,17.31
2023-04-24T15:15:20.749Z,17.17
2023-04-24T15:17:47.407Z,17.07
2023-04-24T15:20:14.211Z,17.01
2023-04-24T15:22:41.131Z,16.98
2023-04-24T15:25:08.403Z,16.96
2023-04-24T15:27:45.906Z,16.90
2023-04-24T15:30:14.357Z,16.86
2023-04-24T15:32:41.377Z,16.84
2023-04-24T15:35:10.155Z,16.83
2023-04-24T15:37:38.990Z,16.79
2023-04-24T15:40:08.286Z,16.79
2023-04-24T15:42:35.843Z,16.77
2023-04-24T15:45:02.665Z,16.80
2023-04-24T15:47:29.405Z,16.75
2023-04-24T15:49:56.106Z,16.73
2023-04-24T15:52:22.977Z,16.72
2023-04-24T15:54:50.130Z,16.69
2023-04-24T15:57:17.072Z,16.70
2023-04-24T15:59:45.388Z,16.68
2023-04-24T16:02:19.386Z,16.66
2023-04-24T16:04:51.018Z,16.64
2023-04-24T16:07:20.902Z,16.64
2023-04-24T16:09:47.714Z,16.76
2023-04-24T16:12:14.729Z,16.90
2023-04-24T16:14:42.284Z,16.97
2023-04-24T16:17:09.441Z,17.01
2023-04-24T16:19:36.375Z,17.04
2023-04-24T16:22:04.185Z,17.07
2023-04-24T16:24:31.323Z,17.09
2023-04-24T16:26:58.250Z,17.08
2023-04-24T16:29:25.084Z,17.11
2023-04-24T16:31:51.920Z,17.10
2023-04-24T16:34:18.934Z,17.11
2023-04-24T16:36:45.753Z,17.03
2023-04-24T16:39:13.221Z,16.90
2023-04-24T16:41:40.300Z,16.81
2023-04-24T16:44:07.438Z,16.76
2023-04-24T16:46:34.654Z,16.69
2023-04-24T16:49:01.603Z,16.70
2023-04-24T16:51:29.097Z,16.66
2023-04-24T16:53:56.209Z,16.64
2023-04-24T16:56:23.233Z,16.61
2023-04-24T16:58:50.862Z,16.59
2023-04-24T17:01:18.057Z,16.58
2023-04-24T17:03:45.219Z,16.56
2023-04-24T17:06:12.717Z,16.58
2023-04-24T17:08:39.394Z,16.57
2023-04-24T17:11:09.188Z,16.55
2023-04-24T17:13:36.151Z,16.53
2023-04-24T17:16:03.051Z,16.49
2023-04-24T17:18:29.836Z,16.50
2023-04-24T17:20:56.696Z,16.48
2023-04-24T17:23:23.542Z,16.45
2023-04-24T17:25:50.336Z,16.45
2023-04-24T17:28:29.368Z,16.46
2023-04-24T17:30:58.564Z,16.43
2023-04-24T17:33:26.152Z,16.41
2023-04-24T17:35:53.092Z,16.38
2023-04-24T17:38:20.933Z,16.38
2023-04-24T17:40:47.668Z,16.38
2023-04-24T17:43:18.074Z,16.38
2023-04-24T17:45:49.834Z,16.35
2023-04-24T17:48:18.182Z,16.34
2023-04-24T17:50:46.004Z,16.56
2023-04-24T17:53:12.720Z,16.67
2023-04-24T17:55:40.529Z,16.70
2023-04-24T17:58:07.946Z,16.74
2023-04-24T18:00:35.300Z,16.75
2023-04-24T18:03:03.686Z,16.78
2023-04-24T18:05:31.832Z,16.83
2023-04-24T18:07:59.203Z,16.85
2023-04-24T18:10:27.913Z,16.89
2023-04-24T18:12:55.055Z,16.99
2023-04-24T18:15:22.070Z,16.97
2023-04-24T18:17:49.136Z,16.97
2023-04-24T18:20:17.791Z,16.86
2023-04-24T18:22:44.805Z,16.79
2023-04-24T18:25:12.174Z,16.70
2023-04-24T18:27:40.150Z,16.61
2023-04-24T18:30:08.658Z,16.62
2023-04-24T18:32:35.843Z,16.58
2023-04-24T18:35:03.443Z,16.51
2023-04-24T18:37:32.860Z,16.53
2023-04-24T18:39:59.375Z,16.49
2023-04-24T18:42:26.029Z,16.48
2023-04-24T18:45:02.562Z,16.47
2023-04-24T18:47:29.327Z,16.43
2023-04-24T18:49:56.451Z,16.38
2023-04-24T18:52:24.245Z,16.39
2023-04-24T18:54:51.229Z,16.33
2023-04-24T18:57:18.000Z,16.32
2023-04-24T18:59:44.794Z,16.25
2023-04-24T19:02:11.854Z,16.27
2023-04-24T19:04:38.653Z,16.25
2023-04-24T19:07:05.548Z,16.18
2023-04-24T19:09:32.358Z,16.16
2023-04-24T19:12:00.194Z,16.16
2023-04-24T19:14:27.005Z,16.12
2023-04-24T19:16:54.011Z,16.11
2023-04-24T19:19:21.730Z,16.08
2023-04-24T19:21:50.121Z,16.09
2023-04-24T19:24:19.085Z,16.06
2023-04-24T19:26:46.385Z,16.01
2023-04-24T19:29:13.202Z,16.01
2023-04-24T19:31:40.195Z,15.98
2023-04-24T19:34:06.985Z,15.96
2023-04-24T19:36:34.046Z,15.96
2023-04-24T19:39:00.988Z,15.95
2023-04-24T19:41:27.717Z,15.92
2023-04-24T19:43:54.495Z,15.90
2023-04-24T19:46:21.402Z,15.88
2023-04-24T19:48:48.352Z,15.90
2023-04-24T19:51:15.486Z,15.88
2023-04-24T19:53:43.558Z,15.85
2023-04-24T19:56:10.587Z,15.83
2023-04-24T19:58:37.218Z,15.79
2023-04-24T20:01:05.927Z,15.82
2023-04-24T20:03:34.010Z,15.81
2023-04-24T20:06:01.485Z,15.79
2023-04-24T20:08:28.226Z,15.76
2023-04-24T20:10:57.818Z,15.75
2023-04-24T20:13:27.550Z,15.75
2023-04-24T20:15:54.152Z,15.74
2023-04-24T20:18:21.366Z,15.72
2023-04-24T20:20:48.090Z,15.72
2023-04-24T20:23:14.806Z,15.73
2023-04-24T20:25:41.436Z,15.70
2023-04-24T20:28:08.140Z,15.70
2023-04-24T20:30:34.861Z,15.69
2023-04-24T20:33:01.692Z,15.65
2023-04-24T20:35:28.477Z,15.64
2023-04-24T20:37:55.231Z,15.67
2023-04-24T20:40:22.030Z,15.65
2023-04-24T20:42:49.824Z,15.61
2023-04-24T20:45:17.913Z,15.62
2023-04-24T20:47:44.771Z,15.61
2023-04-24T20:50:12.150Z,15.59
2023-04-24T20:52:39.057Z,15.60
2023-04-24T20:55:06.882Z,15.54
2023-04-24T20:57:34.013Z,15.61
2023-04-24T21:00:04.186Z,15.56
2023-04-24T21:02:31.070Z,15.54
2023-04-24T21:04:57.787Z,15.54
2023-04-24T21:07:24.450Z,15.55
2023-04-24T21:09:51.211Z,15.53
2023-04-24T21:12:18.081Z,15.53
2023-04-24T21:14:44.919Z,15.54
2023-04-24T21:17:11.736Z,15.53
2023-04-24T21:19:38.607Z,15.51
2023-04-24T21:22:05.505Z,15.50
2023-04-24T21:24:32.273Z,15.52
2023-04-24T21:26:59.196Z,15.49
2023-04-24T21:29:26.351Z,15.50
2023-04-24T21:31:53.304Z,15.50
2023-04-24T21:34:19.929Z,15.46
2023-04-24T21:36:47.814Z,15.45
2023-04-24T21:39:14.719Z,15.46
2023-04-24T21:41:41.712Z,15.46
2023-04-24T21:44:08.909Z,15.47
2023-04-24T21:46:36.145Z,15.47
2023-04-24T21:49:02.925Z,15.39
2023-04-24T21:51:29.523Z,15.40
2023-04-24T21:53:56.330Z,15.41
2023-04-24T21:56:23.207Z,15.40
2023-04-24T21:58:50.020Z,15.41
2023-04-24T22:01:16.931Z,15.39
2023-04-24T22:03:43.719Z,15.40
2023-04-24T22:06:10.679Z,15.38
2023-04-24T22:08:37.511Z,15.38
2023-04-24T22:11:07.208Z,15.36
2023-04-24T22:13:37.900Z,15.35
2023-04-24T22:16:04.806Z,15.36
2023-04-24T22:18:46.081Z,15.33
2023-04-24T22:21:13.919Z,15.30
2023-04-24T22:23:40.792Z,15.31
2023-04-24T22:26:07.542Z,15.34
2023-04-24T22:28:34.320Z,15.34
2023-04-24T22:31:01.213Z,15.34
2023-04-24T22:33:28.156Z,15.31
2023-04-24T22:35:55.239Z,15.31
2023-04-24T22:38:21.846Z,15.31
2023-04-24T22:40:48.974Z,15.28
2023-04-24T22:43:17.401Z,15.28
2023-04-24T22:45:43.986Z,15.27
2023-04-24T22:48:10.714Z,15.29
2023-04-24T22:50:37.518Z,15.27
2023-04-24T22:53:04.145Z,15.25
2023-04-24T22:55:31.415Z,15.27
2023-04-24T22:57:58.329Z,15.25
2023-04-24T23:00:24.994Z,15.26
2023-04-24T23:02:51.816Z,15.24
2023-04-24T23:05:21.374Z,15.22
2023-04-24T23:07:48.078Z,15.22
2023-04-24T23:10:14.662Z,15.24
2023-04-24T23:12:41.483Z,15.22
2023-04-24T23:15:09.783Z,15.21
2023-04-24T23:17:36.389Z,15.18
2023-04-24T23:20:04.280Z,15.19
2023-04-24T23:22:31.267Z,15.18
2023-04-24T23:24:57.933Z,15.20
2023-04-24T23:27:24.595Z,15.21
2023-04-24T23:29:51.922Z,15.18
2023-04-24T23:32:18.833Z,15.19
2023-04-24T23:34:45.792Z,15.19
2023-04-24T23:37:12.693Z,15.18
2023-04-24T23:39:39.537Z,15.15
2023-04-24T23:42:07.834Z,15.11
2023-04-24T23:44:35.050Z,15.12
2023-04-24T23:47:01.742Z,15.14
2023-04-24T23:49:28.314Z,15.15
2023-04-24T23:51:56.269Z,15.13
2023-04-24T23:54:22.939Z,15.13
2023-04-24T23:56:50.171Z,15.12
2023-04-24T23:59:16.835Z,15.14
